createdAt,value
2022-11-16T12:58:20.619Z,14.17
2022-11-16T12:59:22.585Z,13.52
2022-11-16T13:00:21.540Z,13.15
2022-11-16T13:01:21.624Z,12.75
2022-11-16T13:02:21.798Z,13.01
2022-11-16T13:03:21.680Z,13.25
2022-11-16T13:04:21.499Z,13.51
2022-11-16T13:05:21.475Z,13.48
2022-11-16T13:06:21.612Z,13.67
2022-11-16T13:07:21.519Z,14.22
2022-11-16T13:08:21.439Z,14.92
2022-11-16T13:09:21.445Z,15.56
2022-11-16T13:10:21.446Z,15.51
2022-11-16T13:11:21.410Z,14.96
2022-11-16T13:12:21.389Z,14.72
2022-11-16T13:13:35.836Z,14.45
2022-11-16T13:14:23.486Z,14.42
2022-11-16T13:15:21.358Z,14.40
2022-11-16T13:16:21.488Z,14.55
2022-11-16T13:17:21.481Z,15.10
2022-11-16T13:18:21.334Z,14.89
2022-11-16T13:19:21.316Z,15.10
2022-11-16T13:20:21.361Z,15.41
2022-11-16T13:21:21.299Z,15.38
2022-11-16T13:22:21.291Z,15.19
2022-11-16T13:23:21.268Z,14.84
2022-11-16T13:24:21.261Z,14.43
2022-11-16T13:25:21.311Z,14.06
2022-11-16T13:26:22.233Z,13.92
2022-11-16T13:27:21.226Z,13.52
2022-11-16T13:28:21.214Z,13.49
2022-11-16T13:29:21.201Z,13.44
2022-11-16T13:30:21.200Z,13.30
2022-11-16T13:31:21.196Z,13.30
2022-11-16T13:32:21.167Z,13.05
2022-11-16T13:33:21.160Z,12.83
2022-11-16T13:34:21.168Z,12.77
2022-11-16T13:35:21.131Z,12.95
2022-11-16T13:36:21.160Z,12.82
2022-11-16T13:37:21.110Z,12.79
2022-11-16T13:38:21.117Z,12.72
2022-11-16T13:39:22.829Z,12.64
2022-11-16T13:40:22.076Z,12.67
2022-11-16T13:41:21.264Z,12.82
2022-11-16T13:42:21.056Z,12.95
2022-11-16T13:43:21.077Z,13.12
2022-11-16T13:44:21.041Z,13.23
2022-11-16T13:45:21.011Z,13.01
2022-11-16T13:46:53.695Z,12.95
2022-11-16T13:47:23.035Z,13.08
2022-11-16T13:48:20.985Z,12.75
2022-11-16T13:49:20.976Z,12.24
2022-11-16T13:50:20.976Z,12.29
2022-11-16T13:51:20.953Z,12.23
2022-11-16T13:52:24.058Z,12.24
2022-11-16T13:54:47.244Z,12.46
2022-11-16T13:55:22.923Z,12.23
2022-11-16T13:56:25.597Z,11.91
